CYZ421 ZYHB-ZSNJ
Flight info
| Callsign | CYZ421 |
|---|---|
| Flight time | 2h 21m |
| Altitude | 30100 |
| Route | K0926S0920 DUK07D DUKIR W655 NIMEM W205 NULRA A588 UDETI W106 MAKNO W5 TAO W174 XDX DCT MABEB DCT GURIL DCT RUXEL W178 OF OF71F |
| Aircraft | B77L/H-SDE1E2E3FGHIJ2J3J4J5M1RWXY/LB1D1 |
Departure
| Time | 2026-04-21 10:07 |
|---|---|
| Airport | Harbin Taiping International Airport (ZYHB) |
Arrival
| Time | 2026-04-21 12:28 |
|---|---|
| Airport | Nanjing Lukou International Airport (ZSNJ) |
| Time | Latitude | Longitude | Altitude | Speed | Heading |
|---|---|---|---|---|---|
| 2026-04-21 09:52 | 45.61408 | 126.22982 | 467 ft | 0 kts | 40° |
| 2026-04-21 10:01 | 45.61400 | 126.22973 | 465 ft | 2 kts | 40° |
| 2026-04-21 10:01 | 45.61388 | 126.22958 | 465 ft | 2 kts | 40° |
| 2026-04-21 10:02 | 45.61364 | 126.22927 | 469 ft | 2 kts | 75° |
| 2026-04-21 10:02 | 45.61366 | 126.22906 | 465 ft | 2 kts | 144° |
| 2026-04-21 10:02 | 45.61371 | 126.22901 | 467 ft | 0 kts | 148° |
| 2026-04-21 10:03 | 45.61366 | 126.22905 | 465 ft | 4 kts | 148° |
| 2026-04-21 10:03 | 45.61334 | 126.22938 | 469 ft | 6 kts | 137° |
| 2026-04-21 10:03 | 45.61294 | 126.23000 | 470 ft | 17 kts | 130° |
| 2026-04-21 10:04 | 45.61167 | 126.23067 | 468 ft | 22 kts | 215° |
| 2026-04-21 10:04 | 45.61052 | 126.22935 | 468 ft | 20 kts | 221° |
| 2026-04-21 10:04 | 45.60950 | 126.22809 | 468 ft | 20 kts | 221° |
| 2026-04-21 10:04 | 45.60841 | 126.22778 | 470 ft | 18 kts | 140° |
| 2026-04-21 10:05 | 45.60745 | 126.22935 | 467 ft | 22 kts | 130° |
| 2026-04-21 10:05 | 45.60649 | 126.23099 | 467 ft | 21 kts | 130° |
| 2026-04-21 10:05 | 45.60559 | 126.23250 | 470 ft | 19 kts | 130° |
| 2026-04-21 10:05 | 45.60478 | 126.23389 | 472 ft | 17 kts | 130° |
| 2026-04-21 10:06 | 45.60388 | 126.23544 | 470 ft | 30 kts | 130° |
| 2026-04-21 10:06 | 45.60253 | 126.23761 | 469 ft | 17 kts | 153° |
| 2026-04-21 10:06 | 45.60097 | 126.23648 | 472 ft | 43 kts | 219° |
| 2026-04-21 10:06 | 45.59629 | 126.23099 | 478 ft | 132 kts | 220° |
| 2026-04-21 10:07 | 45.58720 | 126.22020 | 535 ft | 204 kts | 220° |
| 2026-04-21 10:07 | 45.57515 | 126.20706 | 1087 ft | 220 kts | 221° |
| 2026-04-21 10:07 | 45.56304 | 126.19402 | 2319 ft | 223 kts | 224° |
| 2026-04-21 10:07 | 45.55044 | 126.17975 | 2942 ft | 240 kts | 226° |
| 2026-04-21 10:08 | 45.53754 | 126.16398 | 3661 ft | 248 kts | 227° |
| 2026-04-21 10:08 | 45.52428 | 126.14779 | 4498 ft | 254 kts | 227° |
| 2026-04-21 10:08 | 45.51070 | 126.13147 | 5382 ft | 256 kts | 226° |
| 2026-04-21 10:08 | 45.49693 | 126.11517 | 6259 ft | 258 kts | 226° |
| 2026-04-21 10:09 | 45.48321 | 126.09906 | 7096 ft | 261 kts | 226° |
| 2026-04-21 10:09 | 45.46912 | 126.08262 | 7932 ft | 263 kts | 225° |
| 2026-04-21 10:09 | 45.45489 | 126.06606 | 8774 ft | 266 kts | 225° |
| 2026-04-21 10:09 | 45.44049 | 126.04932 | 9605 ft | 268 kts | 225° |
| 2026-04-21 10:10 | 45.42599 | 126.03248 | 10369 ft | 271 kts | 226° |
| 2026-04-21 10:10 | 45.41094 | 126.01491 | 10724 ft | 291 kts | 227° |
| 2026-04-21 10:10 | 45.39465 | 125.99587 | 10935 ft | 315 kts | 226° |
| 2026-04-21 10:10 | 45.37705 | 125.97538 | 11162 ft | 338 kts | 226° |
| 2026-04-21 10:11 | 45.35714 | 125.95635 | 11540 ft | 360 kts | 210° |
| 2026-04-21 10:11 | 45.33238 | 125.94800 | 12202 ft | 384 kts | 192° |
| 2026-04-21 10:11 | 45.30527 | 125.94811 | 12835 ft | 395 kts | 188° |
| 2026-04-21 10:11 | 45.27766 | 125.94851 | 13596 ft | 399 kts | 189° |
| 2026-04-21 10:12 | 45.24983 | 125.94847 | 14374 ft | 401 kts | 190° |
| 2026-04-21 10:12 | 45.22177 | 125.94825 | 15136 ft | 405 kts | 190° |
| 2026-04-21 10:12 | 45.19347 | 125.94796 | 15857 ft | 409 kts | 190° |
| 2026-04-21 10:12 | 45.16486 | 125.94765 | 16549 ft | 414 kts | 190° |
| 2026-04-21 10:13 | 45.13592 | 125.94735 | 17253 ft | 418 kts | 190° |
| 2026-04-21 10:13 | 45.10663 | 125.94707 | 17959 ft | 423 kts | 190° |
| 2026-04-21 10:13 | 45.07751 | 125.94681 | 18566 ft | 426 kts | 190° |
| 2026-04-21 10:13 | 45.04781 | 125.94656 | 19237 ft | 428 kts | 190° |
| 2026-04-21 10:14 | 45.01796 | 125.94631 | 19876 ft | 431 kts | 191° |
| 2026-04-21 10:14 | 44.98784 | 125.94604 | 20504 ft | 433 kts | 191° |
| 2026-04-21 10:14 | 44.95761 | 125.94577 | 21108 ft | 436 kts | 191° |
| 2026-04-21 10:14 | 44.92715 | 125.94549 | 21719 ft | 440 kts | 191° |
| 2026-04-21 10:15 | 44.89640 | 125.94520 | 22290 ft | 444 kts | 191° |
| 2026-04-21 10:15 | 44.86536 | 125.94492 | 22825 ft | 447 kts | 191° |
| 2026-04-21 10:15 | 44.83449 | 125.94464 | 23336 ft | 452 kts | 191° |
| 2026-04-21 10:15 | 44.80288 | 125.94437 | 23781 ft | 456 kts | 191° |
| 2026-04-21 10:16 | 44.77106 | 125.94409 | 24255 ft | 460 kts | 191° |
| 2026-04-21 10:16 | 44.73900 | 125.94360 | 24713 ft | 460 kts | 193° |
| 2026-04-21 10:16 | 44.70738 | 125.93938 | 25138 ft | 454 kts | 199° |
| 2026-04-21 10:16 | 44.67625 | 125.93192 | 25590 ft | 454 kts | 201° |
| 2026-04-21 10:17 | 44.64510 | 125.92371 | 26040 ft | 458 kts | 201° |
| 2026-04-21 10:17 | 44.61356 | 125.91580 | 26418 ft | 463 kts | 201° |
| 2026-04-21 10:17 | 44.58157 | 125.90849 | 26821 ft | 469 kts | 200° |
| 2026-04-21 10:17 | 44.54962 | 125.90160 | 27252 ft | 472 kts | 200° |
| 2026-04-21 10:18 | 44.51709 | 125.89467 | 27683 ft | 475 kts | 200° |
| 2026-04-21 10:18 | 44.48434 | 125.88755 | 28088 ft | 478 kts | 200° |
| 2026-04-21 10:18 | 44.45137 | 125.88028 | 28468 ft | 481 kts | 200° |
| 2026-04-21 10:18 | 44.41818 | 125.87296 | 28776 ft | 484 kts | 201° |
| 2026-04-21 10:19 | 44.38474 | 125.86558 | 29073 ft | 489 kts | 201° |
| 2026-04-21 10:19 | 44.35099 | 125.85817 | 29394 ft | 493 kts | 201° |
| 2026-04-21 10:19 | 44.31702 | 125.85076 | 29743 ft | 495 kts | 201° |
| 2026-04-21 10:19 | 44.28344 | 125.84346 | 30071 ft | 495 kts | 201° |
| 2026-04-21 10:20 | 44.24941 | 125.83607 | 30404 ft | 496 kts | 201° |
| 2026-04-21 10:20 | 44.21530 | 125.82864 | 30689 ft | 497 kts | 201° |
| 2026-04-21 10:20 | 44.18103 | 125.82122 | 30905 ft | 498 kts | 201° |
| 2026-04-21 10:20 | 44.14663 | 125.81464 | 31242 ft | 504 kts | 197° |
| 2026-04-21 10:21 | 44.11096 | 125.81508 | 31707 ft | 521 kts | 186° |
| 2026-04-21 10:21 | 44.07490 | 125.82384 | 32228 ft | 531 kts | 178° |
| 2026-04-21 10:21 | 44.03914 | 125.83823 | 32634 ft | 542 kts | 171° |
| 2026-04-21 10:21 | 44.00444 | 125.85754 | 32901 ft | 543 kts | 171° |
| 2026-04-21 10:22 | 43.96885 | 125.87235 | 33015 ft | 526 kts | 181° |
| 2026-04-21 10:22 | 43.93315 | 125.87857 | 33220 ft | 508 kts | 191° |
| 2026-04-21 10:22 | 43.89839 | 125.87821 | 33547 ft | 492 kts | 198° |
| 2026-04-21 10:22 | 43.86501 | 125.87208 | 33736 ft | 480 kts | 204° |
| 2026-04-21 10:23 | 43.83202 | 125.86402 | 33787 ft | 484 kts | 203° |
| 2026-04-21 10:23 | 43.76808 | 125.84224 | 33790 ft | 462 kts | 212° |
| 2026-04-21 10:24 | 43.71073 | 125.80858 | 33789 ft | 441 kts | 221° |
| 2026-04-21 10:24 | 43.65637 | 125.76916 | 33805 ft | 441 kts | 221° |
| 2026-04-21 10:25 | 43.60188 | 125.72987 | 33796 ft | 443 kts | 221° |
| 2026-04-21 10:25 | 43.54717 | 125.69079 | 33790 ft | 442 kts | 221° |
| 2026-04-21 10:26 | 43.49288 | 125.65222 | 33799 ft | 442 kts | 221° |
| 2026-04-21 10:26 | 43.43823 | 125.61349 | 33804 ft | 442 kts | 221° |
| 2026-04-21 10:27 | 43.38369 | 125.57497 | 33789 ft | 435 kts | 221° |
| 2026-04-21 10:27 | 43.35716 | 125.55644 | 33796 ft | 421 kts | 222° |
| 2026-04-21 10:27 | 43.33147 | 125.53851 | 33789 ft | 410 kts | 223° |
| 2026-04-21 10:28 | 43.28016 | 125.50202 | 33820 ft | 422 kts | 222° |
| 2026-04-21 10:28 | 43.22747 | 125.46455 | 33811 ft | 436 kts | 222° |
| 2026-04-21 10:29 | 43.17290 | 125.42618 | 33818 ft | 444 kts | 222° |
| 2026-04-21 10:29 | 43.11785 | 125.38781 | 33804 ft | 444 kts | 222° |
| 2026-04-21 10:30 | 43.06286 | 125.34949 | 33809 ft | 443 kts | 222° |
| 2026-04-21 10:30 | 43.00866 | 125.31177 | 33803 ft | 435 kts | 223° |
| 2026-04-21 10:31 | 42.95514 | 125.27450 | 33816 ft | 431 kts | 223° |
| 2026-04-21 10:31 | 42.90167 | 125.23720 | 33815 ft | 432 kts | 223° |
| 2026-04-21 10:32 | 42.84806 | 125.19999 | 33798 ft | 432 kts | 224° |
| 2026-04-21 10:32 | 42.79455 | 125.16278 | 33821 ft | 432 kts | 224° |
| 2026-04-21 10:33 | 42.74151 | 125.12542 | 33819 ft | 433 kts | 224° |
| 2026-04-21 10:33 | 42.68801 | 125.08777 | 33774 ft | 433 kts | 224° |
| 2026-04-21 10:34 | 42.63456 | 125.05031 | 33821 ft | 433 kts | 224° |
| 2026-04-21 10:34 | 42.58103 | 125.01285 | 33829 ft | 433 kts | 224° |
| 2026-04-21 10:35 | 42.52775 | 124.97568 | 33785 ft | 434 kts | 224° |
| 2026-04-21 10:35 | 42.47414 | 124.93830 | 33821 ft | 434 kts | 224° |
| 2026-04-21 10:36 | 42.42045 | 124.90102 | 33837 ft | 434 kts | 224° |
| 2026-04-21 10:36 | 42.36670 | 124.86364 | 33814 ft | 434 kts | 224° |
| 2026-04-21 10:37 | 42.31335 | 124.82671 | 33843 ft | 433 kts | 223° |
| 2026-04-21 10:37 | 42.25977 | 124.78967 | 33849 ft | 433 kts | 223° |
| 2026-04-21 10:38 | 42.20607 | 124.75259 | 33853 ft | 434 kts | 223° |
| 2026-04-21 10:38 | 42.15235 | 124.71564 | 33837 ft | 432 kts | 222° |
| 2026-04-21 10:39 | 42.09927 | 124.67912 | 33857 ft | 431 kts | 222° |
| 2026-04-21 10:39 | 42.04580 | 124.64241 | 33862 ft | 431 kts | 222° |
| 2026-04-21 10:40 | 41.99277 | 124.60556 | 33846 ft | 417 kts | 227° |
| 2026-04-21 10:40 | 41.97214 | 124.58103 | 33872 ft | 382 kts | 244° |
| 2026-04-21 10:40 | 41.95770 | 124.55147 | 33871 ft | 379 kts | 249° |
| 2026-04-21 10:41 | 41.93154 | 124.49006 | 33869 ft | 384 kts | 249° |
| 2026-04-21 10:41 | 41.90124 | 124.43021 | 33867 ft | 396 kts | 240° |
| 2026-04-21 10:41 | 41.88168 | 124.40348 | 33816 ft | 407 kts | 234° |
| 2026-04-21 10:42 | 41.85928 | 124.37955 | 33865 ft | 416 kts | 229° |
| 2026-04-21 10:42 | 41.80971 | 124.33759 | 33868 ft | 425 kts | 224° |
| 2026-04-21 10:43 | 41.75802 | 124.29880 | 33876 ft | 426 kts | 223° |
| 2026-04-21 10:43 | 41.70656 | 124.26054 | 33890 ft | 426 kts | 224° |
| 2026-04-21 10:44 | 41.65495 | 124.22180 | 33899 ft | 425 kts | 224° |
| 2026-04-21 10:44 | 41.60339 | 124.18294 | 33883 ft | 425 kts | 224° |
| 2026-04-21 10:45 | 41.55195 | 124.14425 | 33802 ft | 424 kts | 224° |
| 2026-04-21 10:45 | 41.50103 | 124.10602 | 33889 ft | 422 kts | 224° |
| 2026-04-21 10:46 | 41.44983 | 124.06766 | 33895 ft | 422 kts | 224° |
| 2026-04-21 10:46 | 41.39828 | 124.02994 | 33841 ft | 423 kts | 221° |
| 2026-04-21 10:46 | 41.36984 | 124.01614 | 33896 ft | 457 kts | 205° |
| 2026-04-21 10:47 | 41.33697 | 124.01295 | 33928 ft | 486 kts | 195° |
| 2026-04-21 10:47 | 41.30270 | 124.01396 | 33916 ft | 497 kts | 193° |
| 2026-04-21 10:47 | 41.26808 | 124.01511 | 33918 ft | 496 kts | 195° |
| 2026-04-21 10:47 | 41.23395 | 124.01406 | 33919 ft | 484 kts | 201° |
| 2026-04-21 10:48 | 41.20159 | 124.00675 | 33902 ft | 460 kts | 211° |
| 2026-04-21 10:48 | 41.17229 | 123.99347 | 33932 ft | 445 kts | 217° |
| 2026-04-21 10:48 | 41.14453 | 123.97622 | 33934 ft | 437 kts | 221° |
| 2026-04-21 10:49 | 41.09196 | 123.93752 | 33946 ft | 428 kts | 224° |
| 2026-04-21 10:49 | 41.04043 | 123.89882 | 33877 ft | 425 kts | 223° |
| 2026-04-21 10:50 | 40.98871 | 123.86125 | 33940 ft | 424 kts | 223° |
| 2026-04-21 10:50 | 40.93703 | 123.82425 | 33947 ft | 425 kts | 223° |
| 2026-04-21 10:51 | 40.88495 | 123.78707 | 33955 ft | 426 kts | 222° |
| 2026-04-21 10:51 | 40.83279 | 123.74985 | 33949 ft | 426 kts | 222° |
| 2026-04-21 10:52 | 40.78110 | 123.71209 | 33963 ft | 424 kts | 223° |
| 2026-04-21 10:52 | 40.72953 | 123.67403 | 33975 ft | 425 kts | 223° |
| 2026-04-21 10:53 | 40.67815 | 123.63630 | 33945 ft | 426 kts | 221° |
| 2026-04-21 10:53 | 40.62648 | 123.59859 | 34015 ft | 424 kts | 221° |
| 2026-04-21 10:54 | 40.57491 | 123.56083 | 33990 ft | 425 kts | 221° |
| 2026-04-21 10:54 | 40.52321 | 123.52310 | 33974 ft | 425 kts | 221° |
| 2026-04-21 10:55 | 40.47176 | 123.48572 | 33995 ft | 426 kts | 221° |
| 2026-04-21 10:55 | 40.41990 | 123.44795 | 33985 ft | 427 kts | 221° |
| 2026-04-21 10:56 | 40.36794 | 123.41021 | 33982 ft | 427 kts | 220° |
| 2026-04-21 10:56 | 40.31588 | 123.37250 | 34008 ft | 428 kts | 220° |
| 2026-04-21 10:57 | 40.26400 | 123.33497 | 34008 ft | 429 kts | 220° |
| 2026-04-21 10:57 | 40.21175 | 123.29727 | 34004 ft | 429 kts | 219° |
| 2026-04-21 10:58 | 40.15940 | 123.25954 | 34017 ft | 430 kts | 219° |
| 2026-04-21 10:58 | 40.10696 | 123.22177 | 34043 ft | 431 kts | 219° |
| 2026-04-21 10:59 | 40.05471 | 123.18427 | 34022 ft | 432 kts | 219° |
| 2026-04-21 10:59 | 40.00226 | 123.14636 | 34033 ft | 430 kts | 220° |
| 2026-04-21 11:00 | 39.95004 | 123.10829 | 33992 ft | 429 kts | 219° |
| 2026-04-21 11:00 | 39.89794 | 123.07035 | 34029 ft | 429 kts | 219° |
| 2026-04-21 11:01 | 39.84574 | 123.03244 | 34042 ft | 430 kts | 219° |
| 2026-04-21 11:01 | 39.79382 | 122.99484 | 34006 ft | 430 kts | 219° |
| 2026-04-21 11:02 | 39.71530 | 122.93811 | 34052 ft | 431 kts | 219° |
| 2026-04-21 11:02 | 39.66274 | 122.90021 | 34062 ft | 433 kts | 219° |
| 2026-04-21 11:03 | 39.61032 | 122.86249 | 34066 ft | 434 kts | 219° |
| 2026-04-21 11:03 | 39.55750 | 122.82455 | 34074 ft | 434 kts | 219° |
| 2026-04-21 11:04 | 39.50458 | 122.78660 | 34081 ft | 435 kts | 219° |
| 2026-04-21 11:04 | 39.45169 | 122.74874 | 34076 ft | 434 kts | 218° |
| 2026-04-21 11:05 | 39.39914 | 122.71119 | 34073 ft | 434 kts | 218° |
| 2026-04-21 11:05 | 39.34625 | 122.67345 | 34083 ft | 434 kts | 218° |
| 2026-04-21 11:06 | 39.29330 | 122.63572 | 34081 ft | 435 kts | 218° |
| 2026-04-21 11:06 | 39.24074 | 122.59743 | 34090 ft | 432 kts | 220° |
| 2026-04-21 11:07 | 39.18994 | 122.55633 | 34095 ft | 431 kts | 221° |
| 2026-04-21 11:07 | 39.13960 | 122.51534 | 34090 ft | 431 kts | 221° |
| 2026-04-21 11:08 | 39.08865 | 122.47448 | 34093 ft | 432 kts | 220° |
| 2026-04-21 11:08 | 39.03753 | 122.43378 | 34099 ft | 433 kts | 220° |
| 2026-04-21 11:09 | 38.98624 | 122.39303 | 34096 ft | 434 kts | 220° |
| 2026-04-21 11:09 | 38.93518 | 122.35251 | 34102 ft | 435 kts | 220° |
| 2026-04-21 11:10 | 38.88373 | 122.31174 | 34108 ft | 435 kts | 220° |
| 2026-04-21 11:10 | 38.83223 | 122.27091 | 34100 ft | 435 kts | 220° |
| 2026-04-21 11:11 | 38.78076 | 122.23012 | 34106 ft | 435 kts | 220° |
| 2026-04-21 11:11 | 38.72985 | 122.18858 | 34105 ft | 427 kts | 227° |
| 2026-04-21 11:12 | 38.70954 | 122.16236 | 34119 ft | 416 kts | 237° |
| 2026-04-21 11:12 | 38.69287 | 122.13234 | 34113 ft | 414 kts | 243° |
| 2026-04-21 11:12 | 38.66974 | 122.06525 | 34118 ft | 414 kts | 256° |
| 2026-04-21 11:13 | 38.65445 | 121.99372 | 34117 ft | 419 kts | 256° |
| 2026-04-21 11:13 | 38.63881 | 121.92181 | 34111 ft | 420 kts | 256° |
| 2026-04-21 11:14 | 38.62299 | 121.85056 | 34099 ft | 418 kts | 255° |
| 2026-04-21 11:14 | 38.60698 | 121.77924 | 34105 ft | 416 kts | 255° |
| 2026-04-21 11:15 | 38.59099 | 121.70833 | 34097 ft | 414 kts | 255° |
| 2026-04-21 11:15 | 38.57502 | 121.63769 | 34100 ft | 413 kts | 255° |
| 2026-04-21 11:16 | 38.55917 | 121.56780 | 34097 ft | 412 kts | 255° |
| 2026-04-21 11:16 | 38.54321 | 121.49759 | 34099 ft | 412 kts | 255° |
| 2026-04-21 11:17 | 38.52718 | 121.42732 | 34079 ft | 412 kts | 255° |
| 2026-04-21 11:17 | 38.51111 | 121.35705 | 34093 ft | 413 kts | 255° |
| 2026-04-21 11:18 | 38.49495 | 121.28660 | 34107 ft | 414 kts | 255° |
| 2026-04-21 11:18 | 38.47879 | 121.21638 | 34112 ft | 416 kts | 255° |
| 2026-04-21 11:19 | 38.45843 | 121.14727 | 34114 ft | 418 kts | 248° |
| 2026-04-21 11:19 | 38.43084 | 121.08175 | 34074 ft | 421 kts | 242° |
| 2026-04-21 11:20 | 38.39949 | 121.01859 | 34107 ft | 422 kts | 241° |
| 2026-04-21 11:20 | 38.36831 | 120.95580 | 34124 ft | 422 kts | 241° |
| 2026-04-21 11:21 | 38.33699 | 120.89246 | 34122 ft | 423 kts | 241° |
| 2026-04-21 11:21 | 38.30563 | 120.82907 | 34094 ft | 423 kts | 241° |
| 2026-04-21 11:22 | 38.27358 | 120.76620 | 34109 ft | 426 kts | 236° |
| 2026-04-21 11:22 | 38.23102 | 120.71344 | 34127 ft | 435 kts | 225° |
| 2026-04-21 11:23 | 38.17947 | 120.67156 | 34132 ft | 447 kts | 213° |
| 2026-04-21 11:23 | 38.12313 | 120.63784 | 34113 ft | 447 kts | 213° |
| 2026-04-21 11:24 | 38.06727 | 120.60337 | 34120 ft | 447 kts | 213° |
| 2026-04-21 11:24 | 38.00750 | 120.57784 | 34131 ft | 461 kts | 202° |
| 2026-04-21 11:25 | 37.94384 | 120.56539 | 34122 ft | 473 kts | 193° |
| 2026-04-21 11:25 | 37.87797 | 120.56104 | 34130 ft | 474 kts | 192° |
| 2026-04-21 11:26 | 37.81204 | 120.55668 | 34132 ft | 474 kts | 192° |
| 2026-04-21 11:26 | 37.74616 | 120.55182 | 34117 ft | 474 kts | 192° |
| 2026-04-21 11:27 | 37.68077 | 120.54691 | 34131 ft | 474 kts | 192° |
| 2026-04-21 11:27 | 37.61536 | 120.53966 | 34136 ft | 470 kts | 195° |
| 2026-04-21 11:28 | 37.55038 | 120.52970 | 34126 ft | 470 kts | 195° |
| 2026-04-21 11:28 | 37.48543 | 120.51968 | 34142 ft | 471 kts | 195° |
| 2026-04-21 11:29 | 37.42073 | 120.50992 | 34148 ft | 472 kts | 195° |
| 2026-04-21 11:29 | 37.35557 | 120.50022 | 34131 ft | 472 kts | 195° |
| 2026-04-21 11:30 | 37.29024 | 120.49054 | 34153 ft | 473 kts | 195° |
| 2026-04-21 11:30 | 37.22491 | 120.48084 | 34159 ft | 473 kts | 195° |
| 2026-04-21 11:31 | 37.15991 | 120.47121 | 34142 ft | 474 kts | 195° |
| 2026-04-21 11:31 | 37.09432 | 120.46150 | 34163 ft | 475 kts | 195° |
| 2026-04-21 11:32 | 37.02861 | 120.45179 | 34166 ft | 476 kts | 195° |
| 2026-04-21 11:32 | 36.96274 | 120.44208 | 34164 ft | 477 kts | 195° |
| 2026-04-21 11:33 | 36.89679 | 120.43238 | 34179 ft | 477 kts | 195° |
| 2026-04-21 11:33 | 36.83123 | 120.42276 | 34169 ft | 477 kts | 195° |
| 2026-04-21 11:34 | 36.76529 | 120.41309 | 34146 ft | 477 kts | 195° |
| 2026-04-21 11:34 | 36.69937 | 120.40344 | 34170 ft | 477 kts | 195° |
| 2026-04-21 11:35 | 36.63333 | 120.39378 | 34177 ft | 478 kts | 195° |
| 2026-04-21 11:35 | 36.56770 | 120.38420 | 34159 ft | 478 kts | 195° |
| 2026-04-21 11:36 | 36.50112 | 120.37715 | 34166 ft | 485 kts | 190° |
| 2026-04-21 11:36 | 36.43357 | 120.37518 | 34163 ft | 486 kts | 190° |
| 2026-04-21 11:37 | 36.36598 | 120.37291 | 34167 ft | 486 kts | 190° |
| 2026-04-21 11:37 | 36.29879 | 120.36996 | 34160 ft | 484 kts | 193° |
| 2026-04-21 11:38 | 36.23313 | 120.35674 | 34167 ft | 475 kts | 200° |
| 2026-04-21 11:38 | 36.16836 | 120.33916 | 34174 ft | 477 kts | 200° |
| 2026-04-21 11:39 | 36.10316 | 120.32218 | 34179 ft | 479 kts | 200° |
| 2026-04-21 11:39 | 36.03818 | 120.30548 | 34183 ft | 481 kts | 200° |
| 2026-04-21 11:40 | 35.97642 | 120.27839 | 34191 ft | 465 kts | 214° |
| 2026-04-21 11:40 | 35.92303 | 120.23535 | 34177 ft | 453 kts | 226° |
| 2026-04-21 11:41 | 35.87477 | 120.18516 | 34183 ft | 454 kts | 226° |
| 2026-04-21 11:41 | 35.82662 | 120.13532 | 34183 ft | 456 kts | 226° |
| 2026-04-21 11:42 | 35.77784 | 120.08538 | 34160 ft | 457 kts | 226° |
| 2026-04-21 11:42 | 35.72885 | 120.03550 | 34180 ft | 457 kts | 225° |
| 2026-04-21 11:43 | 35.67974 | 119.98560 | 34181 ft | 458 kts | 225° |
| 2026-04-21 11:43 | 35.63054 | 119.93566 | 34179 ft | 459 kts | 225° |
| 2026-04-21 11:44 | 35.58160 | 119.88608 | 34173 ft | 459 kts | 225° |
| 2026-04-21 11:44 | 35.53236 | 119.83626 | 34176 ft | 459 kts | 225° |
| 2026-04-21 11:45 | 35.48310 | 119.78648 | 34181 ft | 459 kts | 225° |
| 2026-04-21 11:45 | 35.43379 | 119.73674 | 34156 ft | 458 kts | 225° |
| 2026-04-21 11:46 | 35.38517 | 119.68715 | 34168 ft | 457 kts | 226° |
| 2026-04-21 11:46 | 35.33641 | 119.63719 | 34170 ft | 457 kts | 226° |
| 2026-04-21 11:47 | 35.28765 | 119.58735 | 34167 ft | 456 kts | 226° |
| 2026-04-21 11:47 | 35.23893 | 119.53770 | 34170 ft | 455 kts | 226° |
| 2026-04-21 11:48 | 35.19020 | 119.48814 | 34163 ft | 455 kts | 226° |
| 2026-04-21 11:48 | 35.14182 | 119.43900 | 34170 ft | 455 kts | 225° |
| 2026-04-21 11:49 | 35.09305 | 119.38955 | 34159 ft | 455 kts | 225° |
| 2026-04-21 11:49 | 35.04426 | 119.34016 | 34161 ft | 455 kts | 225° |
| 2026-04-21 11:50 | 34.99554 | 119.29093 | 34161 ft | 456 kts | 225° |
| 2026-04-21 11:50 | 34.94686 | 119.24178 | 34174 ft | 459 kts | 225° |
| 2026-04-21 11:51 | 34.89761 | 119.19217 | 34139 ft | 460 kts | 226° |
| 2026-04-21 11:51 | 34.84828 | 119.14256 | 34150 ft | 460 kts | 226° |
| 2026-04-21 11:52 | 34.79897 | 119.09305 | 34157 ft | 459 kts | 226° |
| 2026-04-21 11:52 | 34.74975 | 119.04369 | 34151 ft | 459 kts | 226° |
| 2026-04-21 11:53 | 34.70090 | 118.99477 | 34144 ft | 458 kts | 225° |
| 2026-04-21 11:53 | 34.65175 | 118.94564 | 34147 ft | 457 kts | 225° |
| 2026-04-21 11:54 | 34.59870 | 118.90200 | 34153 ft | 470 kts | 212° |
| 2026-04-21 11:54 | 34.53667 | 118.87583 | 34117 ft | 484 kts | 198° |
| 2026-04-21 11:55 | 34.46950 | 118.86475 | 34127 ft | 488 kts | 194° |
| 2026-04-21 11:55 | 34.40212 | 118.85490 | 34134 ft | 487 kts | 194° |
| 2026-04-21 11:56 | 34.33495 | 118.84434 | 34111 ft | 487 kts | 194° |
| 2026-04-21 11:56 | 34.26788 | 118.83342 | 34121 ft | 485 kts | 194° |
| 2026-04-21 11:57 | 34.20150 | 118.82263 | 34123 ft | 484 kts | 194° |
| 2026-04-21 11:57 | 34.13475 | 118.81184 | 34123 ft | 483 kts | 194° |
| 2026-04-21 11:58 | 34.06808 | 118.80122 | 34116 ft | 483 kts | 194° |
| 2026-04-21 11:58 | 34.00125 | 118.79086 | 34118 ft | 485 kts | 194° |
| 2026-04-21 11:59 | 33.93473 | 118.78054 | 34113 ft | 486 kts | 194° |
| 2026-04-21 11:59 | 33.86759 | 118.77011 | 34102 ft | 487 kts | 194° |
| 2026-04-21 12:00 | 33.80032 | 118.75947 | 34111 ft | 488 kts | 194° |
| 2026-04-21 12:00 | 33.73300 | 118.74860 | 34110 ft | 489 kts | 194° |
| 2026-04-21 12:01 | 33.66598 | 118.73783 | 34067 ft | 485 kts | 194° |
| 2026-04-21 12:01 | 33.60033 | 118.72739 | 34098 ft | 471 kts | 194° |
| 2026-04-21 12:02 | 33.50293 | 118.71174 | 34100 ft | 470 kts | 194° |
| 2026-04-21 12:03 | 33.43818 | 118.70140 | 34085 ft | 469 kts | 195° |
| 2026-04-21 12:03 | 33.37390 | 118.69109 | 34002 ft | 471 kts | 195° |
| 2026-04-21 12:03 | 33.34124 | 118.68582 | 33420 ft | 475 kts | 195° |
| 2026-04-21 12:04 | 33.30858 | 118.68060 | 32916 ft | 470 kts | 195° |
| 2026-04-21 12:04 | 33.27639 | 118.67548 | 32410 ft | 464 kts | 195° |
| 2026-04-21 12:04 | 33.24449 | 118.67040 | 31928 ft | 460 kts | 195° |
| 2026-04-21 12:04 | 33.21299 | 118.66537 | 31401 ft | 455 kts | 194° |
| 2026-04-21 12:05 | 33.18172 | 118.66034 | 30930 ft | 451 kts | 194° |
| 2026-04-21 12:05 | 33.15075 | 118.65533 | 30444 ft | 448 kts | 194° |
| 2026-04-21 12:05 | 33.12042 | 118.65039 | 29938 ft | 445 kts | 194° |
| 2026-04-21 12:05 | 33.08983 | 118.64541 | 29370 ft | 442 kts | 194° |
| 2026-04-21 12:06 | 33.05953 | 118.64048 | 28846 ft | 438 kts | 194° |
| 2026-04-21 12:06 | 33.02946 | 118.63560 | 28337 ft | 434 kts | 194° |
| 2026-04-21 12:06 | 32.99967 | 118.63077 | 27845 ft | 430 kts | 194° |
| 2026-04-21 12:06 | 32.97011 | 118.62599 | 27360 ft | 427 kts | 194° |
| 2026-04-21 12:07 | 32.94085 | 118.62125 | 26868 ft | 423 kts | 194° |
| 2026-04-21 12:07 | 32.91176 | 118.61654 | 26400 ft | 420 kts | 194° |
| 2026-04-21 12:07 | 32.88332 | 118.61194 | 25938 ft | 417 kts | 194° |
| 2026-04-21 12:07 | 32.85465 | 118.60731 | 25469 ft | 414 kts | 194° |
| 2026-04-21 12:08 | 32.82623 | 118.60271 | 25009 ft | 412 kts | 193° |
| 2026-04-21 12:08 | 32.79790 | 118.59814 | 24534 ft | 409 kts | 193° |
| 2026-04-21 12:08 | 32.76972 | 118.59359 | 24052 ft | 407 kts | 193° |
| 2026-04-21 12:08 | 32.74171 | 118.58907 | 23596 ft | 405 kts | 193° |
| 2026-04-21 12:09 | 32.71386 | 118.58459 | 23075 ft | 403 kts | 193° |
| 2026-04-21 12:09 | 32.68620 | 118.58014 | 22597 ft | 400 kts | 193° |
| 2026-04-21 12:09 | 32.65887 | 118.57522 | 22131 ft | 394 kts | 195° |
| 2026-04-21 12:09 | 32.63257 | 118.56866 | 21787 ft | 389 kts | 198° |
| 2026-04-21 12:10 | 32.60641 | 118.56147 | 21609 ft | 383 kts | 198° |
| 2026-04-21 12:10 | 32.58053 | 118.55449 | 21155 ft | 383 kts | 198° |
| 2026-04-21 12:10 | 32.55457 | 118.54770 | 20713 ft | 381 kts | 197° |
| 2026-04-21 12:10 | 32.52879 | 118.54095 | 20255 ft | 378 kts | 197° |
| 2026-04-21 12:11 | 32.50307 | 118.53505 | 19811 ft | 377 kts | 190° |
| 2026-04-21 12:11 | 32.47678 | 118.53686 | 19394 ft | 380 kts | 174° |
| 2026-04-21 12:11 | 32.45098 | 118.54332 | 19001 ft | 378 kts | 174° |
| 2026-04-21 12:11 | 32.42524 | 118.54959 | 18576 ft | 377 kts | 174° |
| 2026-04-21 12:12 | 32.39996 | 118.55557 | 18153 ft | 375 kts | 174° |
| 2026-04-21 12:12 | 32.37435 | 118.56147 | 17688 ft | 374 kts | 174° |
| 2026-04-21 12:12 | 32.34891 | 118.56726 | 17253 ft | 371 kts | 174° |
| 2026-04-21 12:12 | 32.32365 | 118.57296 | 16833 ft | 368 kts | 174° |
| 2026-04-21 12:13 | 32.29854 | 118.57860 | 16406 ft | 366 kts | 174° |
| 2026-04-21 12:13 | 32.27364 | 118.58418 | 15999 ft | 363 kts | 174° |
| 2026-04-21 12:13 | 32.24890 | 118.58972 | 15598 ft | 361 kts | 174° |
| 2026-04-21 12:13 | 32.22460 | 118.59515 | 15209 ft | 360 kts | 173° |
| 2026-04-21 12:14 | 32.20002 | 118.60064 | 14809 ft | 359 kts | 173° |
| 2026-04-21 12:14 | 32.17554 | 118.60612 | 14406 ft | 358 kts | 173° |
| 2026-04-21 12:14 | 32.15111 | 118.61158 | 14001 ft | 357 kts | 173° |
| 2026-04-21 12:14 | 32.12671 | 118.61701 | 13561 ft | 357 kts | 173° |
| 2026-04-21 12:15 | 32.10234 | 118.62237 | 13126 ft | 355 kts | 173° |
| 2026-04-21 12:15 | 32.07808 | 118.62767 | 12708 ft | 354 kts | 172° |
| 2026-04-21 12:15 | 32.05396 | 118.63295 | 12299 ft | 352 kts | 172° |
| 2026-04-21 12:15 | 32.02997 | 118.63820 | 11891 ft | 349 kts | 172° |
| 2026-04-21 12:16 | 32.00652 | 118.64334 | 11508 ft | 346 kts | 172° |
| 2026-04-21 12:16 | 31.98295 | 118.64853 | 11152 ft | 344 kts | 173° |
| 2026-04-21 12:16 | 31.95909 | 118.65381 | 10788 ft | 350 kts | 172° |
| 2026-04-21 12:16 | 31.93524 | 118.65906 | 10571 ft | 349 kts | 172° |
| 2026-04-21 12:17 | 31.91138 | 118.66431 | 10511 ft | 344 kts | 172° |
| 2026-04-21 12:17 | 31.88862 | 118.66930 | 10259 ft | 320 kts | 173° |
| 2026-04-21 12:17 | 31.86724 | 118.67405 | 10130 ft | 307 kts | 173° |
| 2026-04-21 12:17 | 31.84661 | 118.67860 | 9991 ft | 296 kts | 173° |
| 2026-04-21 12:18 | 31.82701 | 118.68292 | 9848 ft | 285 kts | 173° |
| 2026-04-21 12:18 | 31.80792 | 118.68711 | 9727 ft | 274 kts | 173° |
| 2026-04-21 12:18 | 31.78932 | 118.69121 | 9381 ft | 269 kts | 174° |
| 2026-04-21 12:18 | 31.77142 | 118.69119 | 9081 ft | 250 kts | 200° |
| 2026-04-21 12:19 | 31.75641 | 118.68217 | 8773 ft | 239 kts | 220° |
| 2026-04-21 12:19 | 31.74498 | 118.66872 | 8531 ft | 228 kts | 234° |
| 2026-04-21 12:19 | 31.73640 | 118.65327 | 8187 ft | 226 kts | 238° |
| 2026-04-21 12:19 | 31.72827 | 118.63763 | 7731 ft | 219 kts | 237° |
| 2026-04-21 12:20 | 31.72053 | 118.62274 | 7459 ft | 215 kts | 238° |
| 2026-04-21 12:20 | 31.71262 | 118.60781 | 7187 ft | 216 kts | 237° |
| 2026-04-21 12:20 | 31.70466 | 118.59291 | 6935 ft | 215 kts | 238° |
| 2026-04-21 12:20 | 31.69671 | 118.57809 | 6630 ft | 212 kts | 237° |
| 2026-04-21 12:21 | 31.68893 | 118.56367 | 6302 ft | 203 kts | 233° |
| 2026-04-21 12:21 | 31.67871 | 118.55356 | 6015 ft | 188 kts | 202° |
| 2026-04-21 12:21 | 31.66613 | 118.55142 | 5778 ft | 181 kts | 182° |
| 2026-04-21 12:21 | 31.65367 | 118.55404 | 5548 ft | 187 kts | 160° |
| 2026-04-21 12:22 | 31.64241 | 118.56212 | 5355 ft | 192 kts | 151° |
| 2026-04-21 12:22 | 31.63101 | 118.57058 | 5110 ft | 195 kts | 152° |
| 2026-04-21 12:22 | 31.61968 | 118.57888 | 4862 ft | 195 kts | 152° |
| 2026-04-21 12:22 | 31.60950 | 118.58922 | 4586 ft | 198 kts | 124° |
| 2026-04-21 12:23 | 31.60666 | 118.60480 | 4374 ft | 201 kts | 83° |
| 2026-04-21 12:23 | 31.61236 | 118.61977 | 4174 ft | 203 kts | 59° |
| 2026-04-21 12:23 | 31.61999 | 118.63372 | 3946 ft | 203 kts | 59° |
| 2026-04-21 12:23 | 31.62753 | 118.64761 | 3720 ft | 201 kts | 59° |
| 2026-04-21 12:24 | 31.63499 | 118.66140 | 3486 ft | 199 kts | 61° |
| 2026-04-21 12:24 | 31.64223 | 118.67497 | 3252 ft | 194 kts | 62° |
| 2026-04-21 12:24 | 31.64933 | 118.68817 | 3026 ft | 188 kts | 61° |
| 2026-04-21 12:24 | 31.65601 | 118.70063 | 2827 ft | 177 kts | 62° |
| 2026-04-21 12:25 | 31.66232 | 118.71247 | 2620 ft | 167 kts | 66° |
| 2026-04-21 12:25 | 31.66836 | 118.72377 | 2404 ft | 161 kts | 64° |
| 2026-04-21 12:25 | 31.67428 | 118.73480 | 2204 ft | 159 kts | 65° |
| 2026-04-21 12:25 | 31.68013 | 118.74576 | 2028 ft | 159 kts | 65° |
| 2026-04-21 12:26 | 31.68604 | 118.75684 | 1836 ft | 158 kts | 65° |
| 2026-04-21 12:26 | 31.69173 | 118.76744 | 1639 ft | 149 kts | 66° |
| 2026-04-21 12:26 | 31.69706 | 118.77746 | 1436 ft | 141 kts | 65° |
| 2026-04-21 12:26 | 31.70220 | 118.78707 | 1249 ft | 138 kts | 65° |
| 2026-04-21 12:27 | 31.70720 | 118.79642 | 1080 ft | 137 kts | 63° |
| 2026-04-21 12:27 | 31.71238 | 118.80615 | 898 ft | 145 kts | 62° |
| 2026-04-21 12:27 | 31.71789 | 118.81645 | 667 ft | 150 kts | 60° |
| 2026-04-21 12:27 | 31.72330 | 118.82653 | 430 ft | 142 kts | 59° |
| 2026-04-21 12:28 | 31.72851 | 118.83625 | 297 ft | 142 kts | 58° |
| 2026-04-21 12:28 | 31.73386 | 118.84621 | 123 ft | 144 kts | 61° |
| 2026-04-21 12:28 | 31.73878 | 118.85561 | 55 ft | 108 kts | 57° |
| 2026-04-21 12:28 | 31.74116 | 118.86008 | 52 ft | 43 kts | 57° |
| 2026-04-21 12:29 | 31.74252 | 118.86264 | 52 ft | 32 kts | 59° |
| 2026-04-21 12:29 | 31.74344 | 118.86467 | 56 ft | 25 kts | 73° |
| 2026-04-21 12:29 | 31.74366 | 118.86640 | 57 ft | 18 kts | 87° |
| 2026-04-21 12:29 | 31.74371 | 118.86764 | 64 ft | 13 kts | 87° |
| 2026-04-21 12:30 | 31.74372 | 118.86844 | 62 ft | 7 kts | 94° |
| 2026-04-21 12:30 | 31.74330 | 118.86917 | 58 ft | 13 kts | 130° |
| 2026-04-21 12:30 | 31.74316 | 118.86996 | 58 ft | 7 kts | 108° |
| 2026-04-21 12:30 | 31.74294 | 118.87024 | 55 ft | 4 kts | 138° |
| 2026-04-21 12:31 | 31.74258 | 118.87052 | 56 ft | 5 kts | 148° |
| 2026-04-21 12:31 | 31.74253 | 118.87056 | 59 ft | 0 kts | 148° |